Kintyre, North Dakota
Current Conditions -  °F | °C
As of 8:35 AM on Wednesday 22 Oct 2014 (Local Time) from K7L2 Reporting Station
Few Clouds Few Clouds  
Wind Chill: 55°   Ceiling: Unl
Heat Index: 55°   Visibility: 10mi
Dew Point: 48°   Wind: 14mph
Humidity: 77%   Direction: 250°WSW
Pressure: 29.84"   Gusts: NA
Location:  46.55°N, 99.95°W
Report Text: K7L2 221335Z AUTO 25012KT 10SM FEW110 13/09 A2984 RMK AO2 PWINO PNO
Loading
Personal Weather Stations






























Interactive Weather Map
Tropical Storm Tracking
New forecast layout! Learn more

10-Day Weather Forecast

Advertisements
Track Severe Weather on mobile